Time;durP1;ratioP1;P1;durP2;ratioP2;P2;SDS_P1;SDS_P2;PMS_P1;PMS_P2;Temp;Humidity;BMP_temperature;BMP_pressure;BME280_temperature;BME280_humidity;BME280_pressure;Samples;Min_cycle;Max_cycle;Signal;HPM_P1;HPM_P2
2023/07/12 00:01:23;;;;;;;1.57;1.37;;;;;;;22.07;90.27;95647.34;5091277;28;20445;-57
2023/07/12 00:03:53;;;;;;;1.17;1.07;;;;;;;21.42;91.60;95582.56;5090851;28;20609;-57
2023/07/12 00:06:30;;;;;;;0.50;0.47;;;;;;;22.15;100.00;95642.97;5091001;28;20437;-57
2023/07/12 00:08:59;;;;;;;1.13;0.83;;;;;;;22.56;95.33;95640.13;5091014;28;20528;-57
2023/07/12 00:11:27;;;;;;;0.50;0.40;;;;;;;22.74;96.23;95652.28;5090630;28;20822;-57
2023/07/12 00:13:56;;;;;;;2.10;0.60;;;;;;;22.83;94.93;95646.78;5091146;28;20486;-57
2023/07/12 00:16:26;;;;;;;0.70;0.60;;;;;;;22.71;95.17;95622.47;5087127;28;20483;-56
2023/07/12 00:18:57;;;;;;;0.97;0.97;;;;;;;22.87;92.54;95652.31;5090305;28;20509;-57
2023/07/12 00:21:29;;;;;;;0.70;0.70;;;;;;;22.83;93.20;95646.00;5091193;28;21018;-57
2023/07/12 00:23:59;;;;;;;0.53;0.40;;;;;;;22.87;93.75;95646.91;5090946;28;20433;-57
2023/07/12 00:26:29;;;;;;;1.10;0.80;;;;;;;22.86;94.09;95646.13;5091490;28;20444;-57
2023/07/12 00:28:59;;;;;;;0.70;0.40;;;;;;;22.85;91.57;95649.13;5090239;28;20440;-57
2023/07/12 00:31:30;;;;;;;0.50;0.50;;;;;;;22.79;94.07;95645.91;5092457;28;20497;-57
2023/07/12 00:34:00;;;;;;;0.87;0.60;;;;;;;22.61;88.35;95645.31;5094525;28;20437;-58
2023/07/12 00:36:32;;;;;;;1.00;0.97;;;;;;;22.63;95.60;95643.06;5094542;28;20525;-58
2023/07/12 00:39:02;;;;;;;0.50;0.40;;;;;;;22.54;91.50;95634.25;5095035;28;20437;-58
2023/07/12 00:41:50;;;;;;;0.80;0.50;;;;;;;22.73;88.06;95652.63;5094185;28;20828;-58
2023/07/12 00:44:22;;;;;;;0.60;0.33;;;;;;;22.68;94.22;95650.16;5094507;28;20440;-58
2023/07/12 00:46:53;;;;;;;5.30;1.00;;;;;;;22.61;95.23;95639.09;5094075;28;20944;-58
2023/07/12 00:49:23;;;;;;;0.50;0.30;;;;;;;22.66;94.09;95647.03;5094598;28;20483;-58
2023/07/12 00:51:58;;;;;;;0.60;0.60;;;;;;;22.69;94.35;95654.47;5094514;28;20437;-58
2023/07/12 00:54:28;;;;;;;3.10;0.60;;;;;;;22.55;94.24;95651.25;5094159;28;20446;-58
2023/07/12 00:56:56;;;;;;;0.60;0.40;;;;;;;22.57;95.60;95649.00;5094048;28;20950;-58
2023/07/12 00:59:29;;;;;;;0.50;0.37;;;;;;;22.28;94.92;95603.28;5093630;28;20472;-58
2023/07/12 01:02:03;;;;;;;0.60;0.40;;;;;;;22.49;96.00;95647.97;5094093;28;20472;-58
2023/07/12 01:04:38;;;;;;;0.50;0.40;;;;;;;22.47;94.02;95638.63;5094148;28;20454;-58
2023/07/12 01:07:07;;;;;;;1.00;0.90;;;;;;;22.31;95.30;95614.22;5093999;28;20482;-58
2023/07/12 01:09:35;;;;;;;0.60;0.60;;;;;;;22.47;94.38;95639.41;5092443;28;20429;-57
2023/07/12 01:12:04;;;;;;;0.80;0.70;;;;;;;22.45;95.34;95635.47;5093900;28;20502;-58
2023/07/12 01:14:33;;;;;;;0.50;0.40;;;;;;;22.46;94.73;95631.66;5093201;28;20433;-58
2023/07/12 01:17:04;;;;;;;0.50;0.50;;;;;;;22.39;95.91;95631.44;5093940;28;20525;-58
2023/07/12 01:19:35;;;;;;;0.60;0.50;;;;;;;22.35;92.48;95635.91;5080510;28;20443;-58
2023/07/12 01:22:06;;;;;;;0.93;0.37;;;;;;;22.34;98.26;95637.06;5093094;28;20436;-58
2023/07/12 01:24:34;;;;;;;0.53;0.40;;;;;;;22.35;96.76;95638.63;5093656;28;21006;-58
2023/07/12 01:27:12;;;;;;;4.80;0.67;;;;;;;22.35;97.89;95641.31;5092973;28;20494;-58
2023/07/12 01:29:40;;;;;;;0.87;0.40;;;;;;;22.24;95.69;95637.50;5093595;28;20530;-58
2023/07/12 01:32:09;;;;;;;0.43;0.37;;;;;;;22.26;97.68;95630.63;5092941;28;20477;-58
2023/07/12 01:34:37;;;;;;;3.03;0.57;;;;;;;22.30;97.75;95639.63;5093534;28;20441;-58
2023/07/12 01:37:07;;;;;;;0.73;0.70;;;;;;;22.31;98.44;95641.22;5093256;28;20468;-58
2023/07/12 01:39:36;;;;;;;1.07;0.70;;;;;;;22.16;95.28;95628.38;5093210;28;20447;-58
2023/07/12 01:42:05;;;;;;;0.60;0.60;;;;;;;21.97;99.23;95636.19;5092954;28;20918;-58
2023/07/12 01:44:34;;;;;;;0.80;0.50;;;;;;;22.21;99.52;95638.97;5093071;28;20464;-58
2023/07/12 01:47:02;;;;;;;9.20;0.90;;;;;;;22.19;96.44;95643.13;5093086;28;20448;-58
2023/07/12 01:49:30;;;;;;;0.80;0.50;;;;;;;22.14;96.34;95636.00;5093000;28;20448;-57
2023/07/12 01:51:59;;;;;;;0.60;0.60;;;;;;;22.03;93.66;95646.44;5092853;28;20498;-58
2023/07/12 01:54:28;;;;;;;0.50;0.40;;;;;;;22.12;96.16;95643.66;5092935;28;20444;-57
2023/07/12 01:56:57;;;;;;;1.63;0.60;;;;;;;22.20;97.10;95637.38;5084715;28;20656;-58
2023/07/12 01:59:25;;;;;;;0.80;0.80;;;;;;;22.24;98.38;95640.19;5087979;28;20472;-57
2023/07/12 02:01:54;;;;;;;1.07;0.50;;;;;;;22.19;96.71;95640.41;5092986;28;20873;-58
2023/07/12 02:04:22;;;;;;;2.87;1.00;;;;;;;22.15;97.53;95645.69;5092724;28;20445;-58
2023/07/12 02:06:50;;;;;;;0.60;0.50;;;;;;;22.09;97.54;95652.41;5092442;28;21010;-59
2023/07/12 02:09:19;;;;;;;0.50;0.40;;;;;;;22.02;98.32;95646.78;5091897;28;20464;-57
2023/07/12 02:11:49;;;;;;;0.60;0.57;;;;;;;22.06;96.25;95651.16;5092567;28;20436;-58
2023/07/12 02:14:18;;;;;;;0.63;0.53;;;;;;;22.06;98.76;95663.91;5092172;28;20441;-58
2023/07/12 02:16:46;;;;;;;1.53;0.40;;;;;;;22.03;97.37;95667.25;5092867;28;20469;-58
2023/07/12 02:19:14;;;;;;;0.70;0.67;;;;;;;22.03;98.70;95668.06;5092871;28;20520;-59
2023/07/12 02:21:43;;;;;;;1.00;0.50;;;;;;;22.03;99.44;95669.94;5092542;28;20444;-58
2023/07/12 02:24:11;;;;;;;0.50;0.47;;;;;;;21.96;97.75;95665.06;5091925;28;20444;-58
2023/07/12 02:26:41;;;;;;;0.40;0.30;;;;;;;21.92;97.63;95669.56;5092480;28;20449;-58
2023/07/12 02:29:11;;;;;;;0.77;0.40;;;;;;;21.89;98.56;95669.44;5092157;28;20445;-58
2023/07/12 02:31:39;;;;;;;0.70;0.60;;;;;;;21.92;99.17;95664.19;5092395;28;20444;-58
2023/07/12 02:34:08;;;;;;;5.63;0.50;;;;;;;21.89;99.61;95666.75;5092061;28;20441;-58
2023/07/12 02:36:36;;;;;;;0.60;0.30;;;;;;;21.89;99.89;95667.53;5091701;28;20494;-58
2023/07/12 02:39:04;;;;;;;0.50;0.30;;;;;;;21.88;99.24;95665.94;5092731;28;20433;-58
2023/07/12 02:41:33;;;;;;;0.60;0.57;;;;;;;21.91;100.00;95680.69;5092046;28;20498;-58
2023/07/12 02:44:01;;;;;;;1.80;0.50;;;;;;;21.51;91.64;95673.06;5092028;28;20532;-58
2023/07/12 02:46:31;;;;;;;2.03;0.50;;;;;;;21.39;100.00;95685.69;5091829;28;20440;-58
2023/07/12 02:48:59;;;;;;;1.17;1.17;;;;;;;20.74;100.00;95688.91;5091781;28;20437;-59
2023/07/12 02:51:27;;;;;;;1.37;1.27;;;;;;;20.47;100.00;95686.63;5091841;28;20437;-59
2023/07/12 02:53:56;;;;;;;4.17;0.87;;;;;;;20.55;100.00;95685.81;5091319;28;20444;-58
2023/07/12 02:56:24;;;;;;;1.70;1.60;;;;;;;20.21;100.00;95692.84;5091654;28;20468;-59
2023/07/12 02:58:52;;;;;;;0.80;0.60;;;;;;;20.03;100.00;95688.66;5091537;28;20496;-59
2023/07/12 03:01:21;;;;;;;0.57;0.50;;;;;;;20.02;100.00;95684.38;5091785;28;20490;-59
2023/07/12 03:03:50;;;;;;;1.10;1.00;;;;;;;19.85;100.00;95697.06;5092117;28;20448;-59
2023/07/12 03:06:19;;;;;;;0.73;0.70;;;;;;;20.51;100.00;95696.47;5091469;28;20965;-59
2023/07/12 03:08:47;;;;;;;0.90;0.90;;;;;;;20.81;100.00;95697.28;5091683;28;21014;-59
2023/07/12 03:11:16;;;;;;;0.63;0.50;;;;;;;20.95;100.00;95694.38;5091836;28;20437;-58
2023/07/12 03:13:44;;;;;;;0.47;0.33;;;;;;;21.09;100.00;95709.22;5091942;28;20991;-59
2023/07/12 03:16:12;;;;;;;0.80;0.63;;;;;;;21.18;100.00;95709.16;5091335;28;20948;-59
2023/07/12 03:18:40;;;;;;;1.17;1.17;;;;;;;21.29;100.00;95721.94;5091527;28;20562;-58
2023/07/12 03:21:11;;;;;;;0.83;0.83;;;;;;;21.26;100.00;95717.19;5091613;28;20495;-53
2023/07/12 03:23:39;;;;;;;0.70;0.70;;;;;;;21.35;100.00;95717.16;5091608;28;20519;-58
2023/07/12 03:26:08;;;;;;;0.73;0.73;;;;;;;21.43;100.00;95718.97;5091753;28;20937;-58
2023/07/12 03:28:36;;;;;;;0.50;0.50;;;;;;;21.52;100.00;95720.53;5091349;28;20441;-58
2023/07/12 03:31:06;;;;;;;0.70;0.50;;;;;;;21.46;98.09;95718.31;5091237;28;20441;-65
2023/07/12 03:33:35;;;;;;;0.87;0.60;;;;;;;21.39;91.73;95710.78;5091176;28;20520;-59
2023/07/12 03:36:04;;;;;;;0.63;0.63;;;;;;;21.35;92.99;95720.59;5091716;28;20440;-59
2023/07/12 03:38:34;;;;;;;0.50;0.30;;;;;;;21.30;93.70;95720.81;5091096;28;20493;-60
2023/07/12 03:41:04;;;;;;;0.47;0.30;;;;;;;21.38;92.78;95722.66;5091474;28;20440;-60
2023/07/12 03:43:34;;;;;;;0.50;0.40;;;;;;;21.37;92.76;95731.88;5091276;28;20491;-59
2023/07/12 03:46:03;;;;;;;1.67;0.47;;;;;;;21.38;93.34;95733.44;5091933;28;20436;-60
2023/07/12 03:48:31;;;;;;;0.50;0.47;;;;;;;21.34;92.47;95732.53;5090442;28;20476;-59
2023/07/12 03:51:00;;;;;;;0.60;0.53;;;;;;;20.69;97.05;95737.59;5091365;28;20787;-61
2023/07/12 03:53:29;;;;;;;0.87;0.83;;;;;;;20.33;100.00;95731.81;5091636;28;20552;-61
2023/07/12 03:56:00;;;;;;;0.77;0.77;;;;;;;20.49;100.00;95740.97;5091284;28;20936;-59
2023/07/12 03:58:31;;;;;;;1.50;0.67;;;;;;;20.71;100.00;95736.16;5066587;28;20491;-60
2023/07/12 04:01:03;;;;;;;0.83;0.83;;;;;;;20.82;100.00;95742.75;5090776;28;20453;-60
2023/07/12 04:03:32;;;;;;;0.90;0.90;;;;;;;20.49;100.00;95741.75;5091410;28;21015;-61
2023/07/12 04:06:01;;;;;;;6.63;0.40;;;;;;;20.52;100.00;95743.00;5093684;28;20444;-60
2023/07/12 04:08:30;;;;;;;1.37;1.27;;;;;;;19.77;100.00;95681.72;5095064;28;20447;-61
2023/07/12 04:10:59;;;;;;;1.13;1.03;;;;;;;20.29;100.00;95744.34;5094637;28;20493;-59
2023/07/12 04:13:28;;;;;;;0.77;0.77;;;;;;;20.49;100.00;95749.81;5095188;28;20912;-60
2023/07/12 04:16:00;;;;;;;3.70;0.47;;;;;;;20.65;100.00;95753.59;5095030;28;20440;-59
2023/07/12 04:18:29;;;;;;;0.60;0.50;;;;;;;20.99;100.00;95741.91;5094659;28;20476;-60
2023/07/12 04:21:04;;;;;;;1.73;1.63;;;;;;;20.88;100.00;95746.06;5094772;28;20480;-59
2023/07/12 04:23:33;;;;;;;0.80;0.60;;;;;;;21.26;100.00;95751.44;5095109;28;20509;-58
2023/07/12 04:26:05;;;;;;;1.67;0.60;;;;;;;21.10;100.00;95748.50;5094640;28;20436;-60
2023/07/12 04:28:39;;;;;;;3.83;1.60;;;;;;;20.54;100.00;95763.13;5094548;28;21016;-58
2023/07/12 04:31:10;;;;;;;1.07;0.70;;;;;;;20.67;100.00;95761.38;5095229;28;20498;-59
2023/07/12 04:33:40;;;;;;;0.60;0.60;;;;;;;20.54;100.00;95765.03;5094428;28;20436;-58
2023/07/12 04:36:10;;;;;;;1.40;1.30;;;;;;;20.70;100.00;95763.41;5094342;28;20441;-58
2023/07/12 04:38:39;;;;;;;3.17;1.53;;;;;;;20.15;100.00;95707.63;5093773;28;20533;-58
2023/07/12 04:41:09;;;;;;;2.60;1.60;;;;;;;20.60;100.00;95767.22;5094469;28;20449;-58
2023/07/12 04:43:38;;;;;;;3.03;2.30;;;;;;;20.55;100.00;95761.22;5094171;28;20428;-58
2023/07/12 04:46:07;;;;;;;2.60;2.13;;;;;;;20.42;100.00;95770.28;5094215;28;20936;-58
2023/07/12 04:48:35;;;;;;;0.80;0.80;;;;;;;20.89;100.00;95769.22;5093259;28;20432;-59
2023/07/12 04:51:04;;;;;;;0.70;0.70;;;;;;;21.12;100.00;95759.78;5094029;28;20944;-59
2023/07/12 04:53:33;;;;;;;1.33;1.03;;;;;;;20.88;100.00;95765.72;5093937;28;20486;-58
2023/07/12 04:56:02;;;;;;;1.33;1.00;;;;;;;21.01;100.00;95757.72;5094045;28;20928;-58
2023/07/12 04:58:32;;;;;;;13.33;1.77;;;;;;;20.66;100.00;95749.81;5067203;28;20499;-57
2023/07/12 05:01:02;;;;;;;1.67;1.60;;;;;;;20.60;100.00;95761.06;5094106;28;20471;-58
2023/07/12 05:03:32;;;;;;;3.87;1.40;;;;;;;20.94;100.00;95766.34;5094474;28;20433;-57
2023/07/12 05:06:01;;;;;;;3.17;1.30;;;;;;;21.07;100.00;95759.16;5094029;28;20439;-57
2023/07/12 05:08:49;;;;;;;0.60;0.50;;;;;;;21.45;100.00;95771.47;5094109;28;20494;-57
2023/07/12 05:11:17;;;;;;;0.70;0.50;;;;;;;21.48;100.00;95765.44;5093828;28;20436;-57
2023/07/12 05:13:47;;;;;;;0.80;0.70;;;;;;;21.75;100.00;95757.97;5094155;28;20919;-57
2023/07/12 05:16:15;;;;;;;0.60;0.60;;;;;;;22.09;99.77;95758.50;5066769;28;20433;-55
2023/07/12 05:18:44;;;;;;;1.00;0.90;;;;;;;22.20;100.00;95763.47;5092660;28;20560;-54
2023/07/12 05:21:12;;;;;;;0.70;0.40;;;;;;;22.62;95.18;95759.59;5093034;28;20444;-54
2023/07/12 05:23:41;;;;;;;0.60;0.40;;;;;;;22.95;91.89;95754.09;5093679;28;20441;-55
2023/07/12 05:26:10;;;;;;;0.97;0.97;;;;;;;23.05;89.23;95761.78;5093496;28;20944;-55
2023/07/12 05:28:39;;;;;;;0.50;0.40;;;;;;;23.33;87.54;95762.69;5093660;28;20923;-54
2023/07/12 05:31:10;;;;;;;0.40;0.40;;;;;;;23.33;84.65;95751.88;5093825;28;20535;-54
2023/07/12 05:33:42;;;;;;;0.70;0.70;;;;;;;23.19;84.31;95729.78;5091805;28;20460;-54
2023/07/12 05:36:11;;;;;;;0.60;0.50;;;;;;;23.47;84.71;95748.84;5093258;28;20524;-54
2023/07/12 05:38:39;;;;;;;1.90;1.30;;;;;;;22.67;88.71;95754.75;5093437;28;20519;-54
2023/07/12 05:41:07;;;;;;;2.87;2.70;;;;;;;22.56;90.53;95756.28;5093568;28;20501;-54
2023/07/12 05:43:36;;;;;;;0.80;0.70;;;;;;;22.89;91.42;95744.66;5093058;28;20962;-54
2023/07/12 05:46:04;;;;;;;2.30;2.10;;;;;;;22.97;95.16;95747.25;5093240;28;20509;-54
2023/07/12 05:48:34;;;;;;;2.30;0.87;;;;;;;23.04;96.65;95752.09;5092395;28;20873;-54
2023/07/12 05:51:04;;;;;;;1.53;1.20;;;;;;;23.39;94.38;95758.66;5093203;28;20535;-54
2023/07/12 05:53:32;;;;;;;1.67;1.33;;;;;;;23.42;90.97;95758.00;5093014;28;20561;-54
2023/07/12 05:56:01;;;;;;;1.00;0.87;;;;;;;23.71;91.29;95756.91;5092531;28;20437;-54
2023/07/12 05:58:30;;;;;;;2.73;2.23;;;;;;;23.41;92.83;95752.91;5080306;28;20860;-54
2023/07/12 06:00:59;;;;;;;2.07;1.97;;;;;;;23.21;94.01;95760.00;5092992;28;20445;-53
2023/07/12 06:03:28;;;;;;;2.87;2.50;;;;;;;23.21;92.56;95752.66;5092918;28;20501;-55
2023/07/12 06:05:58;;;;;;;1.97;0.97;;;;;;;23.76;89.06;95748.56;5092928;28;20527;-54
2023/07/12 06:08:28;;;;;;;6.00;0.80;;;;;;;24.26;85.15;95739.97;5093222;28;20497;-55
2023/07/12 06:10:57;;;;;;;0.97;0.97;;;;;;;24.77;84.40;95747.13;5092502;28;20444;-55
2023/07/12 06:13:25;;;;;;;1.90;1.80;;;;;;;24.64;81.23;95751.06;5093109;28;20440;-55
2023/07/12 06:15:54;;;;;;;1.00;1.00;;;;;;;25.13;77.83;95748.81;5092430;28;20490;-54
2023/07/12 06:18:23;;;;;;;0.70;0.53;;;;;;;25.59;75.34;95747.22;5092605;28;20436;-55
2023/07/12 06:20:56;;;;;;;0.83;0.83;;;;;;;26.01;72.67;95744.63;5092301;28;20836;-55
2023/07/12 06:23:27;;;;;;;0.50;0.40;;;;;;;26.30;70.67;95746.78;5092596;28;20468;-55
2023/07/12 06:25:58;;;;;;;0.60;0.60;;;;;;;26.20;71.12;95740.00;5092179;28;20479;-55
2023/07/12 06:28:27;;;;;;;1.67;0.87;;;;;;;25.60;73.47;95751.50;5077568;28;20453;-55
2023/07/12 06:30:56;;;;;;;1.20;1.20;;;;;;;25.57;70.79;95752.22;5092283;28;20527;-55
2023/07/12 06:33:24;;;;;;;1.20;1.10;;;;;;;25.95;70.06;95694.44;5091700;28;20967;-54
2023/07/12 06:35:52;;;;;;;4.00;1.60;;;;;;;25.82;70.66;95742.69;5092682;28;20459;-56
2023/07/12 06:38:21;;;;;;;1.23;1.13;;;;;;;26.35;69.51;95744.56;5091870;28;20444;-56
2023/07/12 06:40:50;;;;;;;2.10;2.00;;;;;;;26.15;70.44;95744.94;5092516;28;20476;-56
2023/07/12 06:43:19;;;;;;;1.53;1.43;;;;;;;26.53;69.75;95735.97;5092148;28;20481;-56
2023/07/12 06:45:47;;;;;;;1.53;1.20;;;;;;;27.17;68.21;95727.78;5092848;28;20468;-56
2023/07/12 06:48:15;;;;;;;1.10;1.00;;;;;;;26.93;66.68;95722.72;5092338;28;20507;-55
2023/07/12 06:50:44;;;;;;;1.37;1.27;;;;;;;27.24;64.78;95725.16;5091731;28;20929;-55
2023/07/12 06:53:12;;;;;;;5.53;2.17;;;;;;;27.28;66.73;95723.28;5091660;28;20877;-56
2023/07/12 06:55:45;;;;;;;1.17;1.17;;;;;;;27.26;63.92;95722.84;5091809;28;20436;-55
2023/07/12 06:58:14;;;;;;;2.40;1.13;;;;;;;27.37;61.19;95721.09;5091995;28;20444;-60
2023/07/12 07:00:44;;;;;;;2.30;1.60;;;;;;;27.39;63.08;95732.44;5091669;28;20479;-60
2023/07/12 07:03:14;;;;;;;1.00;0.80;;;;;;;27.64;62.23;95730.84;5091546;28;20498;-60
2023/07/12 07:05:44;;;;;;;1.23;1.13;;;;;;;27.57;60.06;95728.03;5091888;28;20447;-60
2023/07/12 07:08:14;;;;;;;0.83;0.83;;;;;;;28.08;57.60;95724.84;5091812;28;20443;-60
2023/07/12 07:10:43;;;;;;;1.17;0.90;;;;;;;28.32;59.56;95722.41;5091697;28;20444;-60
2023/07/12 07:13:11;;;;;;;1.07;0.97;;;;;;;28.25;60.76;95721.53;5100031;28;20443;-59
2023/07/12 07:15:44;;;;;;;2.33;1.60;;;;;;;28.54;58.24;95707.03;5098023;28;20451;-61
2023/07/12 07:18:13;;;;;;;1.37;1.27;;;;;;;28.62;58.31;95711.44;5091814;28;20490;-61
2023/07/12 07:20:42;;;;;;;1.17;1.17;;;;;;;28.62;56.91;95703.25;5091393;28;20475;-61
2023/07/12 07:23:13;;;;;;;0.80;0.80;;;;;;;29.47;55.81;95712.16;5080618;28;20499;-59
2023/07/12 07:25:41;;;;;;;0.93;0.93;;;;;;;29.58;55.56;95715.72;5089536;28;20471;-59
2023/07/12 07:28:11;;;;;;;2.40;1.60;;;;;;;28.99;52.97;95719.59;5091502;28;20472;-60
2023/07/12 07:30:39;;;;;;;1.30;1.27;;;;;;;29.31;53.01;95706.97;5090987;28;20433;-62
2023/07/12 07:33:09;;;;;;;6.70;0.93;;;;;;;29.22;53.38;95649.19;5091686;28;20463;-62
2023/07/12 07:35:38;;;;;;;3.80;1.73;;;;;;;29.27;53.02;95705.41;5091628;28;20451;-62
2023/07/12 07:38:06;;;;;;;3.43;1.03;;;;;;;29.66;52.72;95668.16;5091223;28;20452;-61
2023/07/12 07:40:35;;;;;;;1.30;1.30;;;;;;;29.85;54.06;95700.72;5093417;28;20880;-62
2023/07/12 07:43:03;;;;;;;0.73;0.73;;;;;;;30.15;51.69;95698.50;5095643;28;20444;-57
2023/07/12 07:45:32;;;;;;;1.77;1.67;;;;;;;30.02;51.31;95699.22;5095555;28;20447;-57
2023/07/12 07:48:00;;;;;;;1.73;1.63;;;;;;;30.62;50.08;95696.66;5095559;28;20444;-57
2023/07/12 07:50:30;;;;;;;1.50;1.33;;;;;;;30.69;50.12;95683.00;5094267;28;20432;-57
2023/07/12 07:52:59;;;;;;;2.00;1.90;;;;;;;30.67;49.92;95691.59;5094942;28;20453;-56
2023/07/12 07:55:27;;;;;;;1.30;1.20;;;;;;;30.48;49.30;95686.50;5094887;28;20879;-56
2023/07/12 07:57:58;;;;;;;1.43;1.33;;;;;;;31.15;49.90;95675.63;5095131;28;20442;-56
2023/07/12 08:00:27;;;;;;;0.53;0.40;;;;;;;32.03;48.30;95680.16;5094066;28;20487;-56
2023/07/12 08:02:55;;;;;;;0.70;0.70;;;;;;;32.06;48.75;95684.84;5094829;28;20799;-57
2023/07/12 08:05:24;;;;;;;4.37;0.50;;;;;;;32.12;46.95;95676.97;5095419;28;20538;-56
2023/07/12 08:07:54;;;;;;;1.30;1.20;;;;;;;31.55;46.75;95673.66;5094519;28;20436;-57
2023/07/12 08:10:22;;;;;;;0.80;0.70;;;;;;;32.09;45.97;95664.84;5095373;28;20481;-56
2023/07/12 08:12:50;;;;;;;13.23;2.00;;;;;;;31.51;49.22;95672.84;5094632;28;20446;-56
2023/07/12 08:15:20;;;;;;;0.43;0.43;;;;;;;32.00;46.05;95676.25;5095399;28;20439;-56
2023/07/12 08:17:49;;;;;;;1.80;1.70;;;;;;;32.24;44.86;95674.56;5094877;28;20428;-56
2023/07/12 08:20:17;;;;;;;1.70;1.60;;;;;;;32.31;44.65;95669.03;5081709;28;20559;-55
2023/07/12 08:22:46;;;;;;;0.80;0.70;;;;;;;32.70;44.48;95668.84;5082056;28;20443;-54
2023/07/12 08:25:16;;;;;;;0.80;0.80;;;;;;;32.76;45.33;95660.97;5094800;28;20947;-54
2023/07/12 08:27:44;;;;;;;0.67;0.63;;;;;;;33.12;45.05;95656.75;5094724;28;20499;-56
2023/07/12 08:30:14;;;;;;;5.60;1.40;;;;;;;32.27;43.13;95667.50;5094822;28;20440;-56
2023/07/12 08:32:42;;;;;;;1.17;1.07;;;;;;;32.43;42.80;95659.59;5095124;28;20450;-55
2023/07/12 08:35:12;;;;;;;1.10;0.83;;;;;;;33.65;41.64;95651.53;5094391;28;20515;-56
2023/07/12 08:37:41;;;;;;;2.70;0.90;;;;;;;34.05;42.58;95660.13;5094724;28;20443;-57
2023/07/12 08:40:14;;;;;;;1.10;0.90;;;;;;;34.43;39.38;95656.88;5094541;28;20467;-56
2023/07/12 08:42:45;;;;;;;2.83;2.53;;;;;;;33.59;39.66;95655.16;5094318;28;20444;-56
2023/07/12 08:45:22;;;;;;;0.93;0.80;;;;;;;33.70;41.16;95658.59;5093849;28;20924;-57
2023/07/12 08:47:54;;;;;;;0.70;0.70;;;;;;;34.69;39.33;95665.56;5094036;28;20497;-56
2023/07/12 08:50:23;;;;;;;0.47;0.47;;;;;;;35.09;39.62;95656.34;5094521;28;20520;-56
2023/07/12 08:52:51;;;;;;;1.40;1.33;;;;;;;34.33;41.59;95665.28;5093332;28;20439;-56
2023/07/12 08:55:22;;;;;;;0.60;0.60;;;;;;;33.42;44.13;95662.34;5094451;28;20435;-56
2023/07/12 08:57:57;;;;;;;0.50;0.40;;;;;;;33.81;42.88;95651.75;5094775;28;20423;-56
2023/07/12 09:00:28;;;;;;;1.23;1.13;;;;;;;34.39;41.17;95647.91;5094046;28;20482;-56
2023/07/12 09:02:57;;;;;;;0.87;0.70;;;;;;;35.10;41.18;95644.09;5093834;28;20468;-56
2023/07/12 09:05:26;;;;;;;1.53;1.03;;;;;;;34.34;40.40;95636.56;5094171;28;20813;-56
2023/07/12 09:07:59;;;;;;;0.63;0.63;;;;;;;35.12;40.53;95636.19;5094184;28;20448;-55
2023/07/12 09:10:33;;;;;;;0.40;0.40;;;;;;;35.38;38.41;95638.09;5093798;28;20524;-55
2023/07/12 09:13:03;;;;;;;6.43;1.10;;;;;;;34.74;41.73;95648.56;5093624;28;20440;-55
2023/07/12 09:15:34;;;;;;;1.50;1.40;;;;;;;34.54;39.43;95647.69;5093717;28;20792;-55
2023/07/12 09:18:08;;;;;;;3.07;0.80;;;;;;;35.06;39.92;95646.16;5093996;28;20789;-56
2023/07/12 09:20:41;;;;;;;0.70;0.70;;;;;;;35.13;42.29;95639.72;5093284;28;20206;-56
2023/07/12 09:23:13;;;;;;;0.80;0.80;;;;;;;34.72;39.53;95643.50;5094100;28;20193;-56
2023/07/12 09:25:47;;;;;;;0.40;0.30;;;;;;;35.77;38.47;95637.38;5093608;28;20473;-56
2023/07/12 09:28:17;;;;;;;1.20;0.90;;;;;;;35.57;39.89;95628.31;5093510;28;20229;-56
2023/07/12 09:30:45;;;;;;;2.43;2.23;;;;;;;35.62;40.26;95631.34;5093897;28;20467;-56
2023/07/12 09:33:18;;;;;;;1.47;1.37;;;;;;;35.42;38.41;95624.25;5093203;28;20795;-56
2023/07/12 09:35:47;;;;;;;1.33;1.07;;;;;;;35.77;37.49;95623.59;5068304;28;20251;-56
2023/07/12 09:38:17;;;;;;;0.73;0.73;;;;;;;36.16;37.57;95629.09;5093030;28;20719;-55
2023/07/12 09:40:48;;;;;;;0.73;0.70;;;;;;;36.39;39.03;95627.41;5093437;28;20304;-55
2023/07/12 09:43:23;;;;;;;0.60;0.60;;;;;;;36.28;36.24;95617.38;5093092;28;20190;-55
2023/07/12 09:46:00;;;;;;;0.60;0.60;;;;;;;36.11;36.98;95615.81;5093020;28;20610;-55
2023/07/12 09:48:44;;;;;;;5.03;1.63;;;;;;;36.24;37.77;95611.19;5093293;28;20657;-56
2023/07/12 09:51:29;;;;;;;0.80;0.80;;;;;;;36.07;37.05;95606.84;5093053;28;20205;-55
2023/07/12 09:54:03;;;;;;;0.90;0.90;;;;;;;36.16;35.84;95604.25;5092305;28;20692;-56
2023/07/12 09:56:40;;;;;;;0.60;0.53;;;;;;;37.03;36.03;95590.81;5092765;28;20189;-55
2023/07/12 09:59:20;;;;;;;0.80;0.80;;;;;;;37.22;36.55;95590.69;5092318;28;20237;-55
2023/07/12 10:01:54;;;;;;;1.02;1.02;;;;;;;36.99;38.17;95582.59;5068276;28;20248;-55
2023/07/12 10:04:37;;;;;;;0.87;0.87;;;;;;;36.23;35.35;95550.91;5092551;28;20201;-55
2023/07/12 10:07:15;;;;;;;1.77;0.73;;;;;;;36.15;38.68;95566.84;5092610;28;20240;-55
2023/07/12 10:09:47;;;;;;;0.57;0.57;;;;;;;36.84;37.59;95562.81;5092541;28;20200;-56
2023/07/12 10:12:24;;;;;;;0.50;0.40;;;;;;;37.37;37.85;95560.66;5092464;28;20202;-55
2023/07/12 10:14:56;;;;;;;0.77;0.77;;;;;;;37.50;35.73;95550.47;5084522;28;20225;-55
2023/07/12 10:17:32;;;;;;;0.63;0.63;;;;;;;37.28;34.76;95557.78;5088371;28;20193;-55
2023/07/12 10:20:02;;;;;;;0.40;0.40;;;;;;;38.01;35.97;95552.16;5092452;28;20235;-55
2023/07/12 10:22:35;;;;;;;1.38;1.33;;;;;;;37.87;36.34;95535.22;5092337;28;20267;-55
2023/07/12 10:25:12;;;;;;;0.40;0.30;;;;;;;37.94;36.67;95546.84;5091776;28;20204;-55
2023/07/12 10:27:46;;;;;;;3.67;0.70;;;;;;;37.20;37.76;95540.59;5066946;28;20568;-55
2023/07/12 10:30:19;;;;;;;5.18;0.52;;;;;;;38.14;36.86;95541.09;5092237;28;20197;-55
2023/07/12 10:32:51;;;;;;;0.60;0.60;;;;;;;38.21;36.21;95537.31;5092129;28;20193;-55
2023/07/12 10:35:24;;;;;;;1.75;1.10;;;;;;;37.79;37.13;95537.38;5092121;28;20196;-55
2023/07/12 10:37:58;;;;;;;0.40;0.40;;;;;;;37.72;37.01;95487.00;5092561;28;20198;-55
2023/07/12 10:40:33;;;;;;;1.60;0.68;;;;;;;37.79;35.38;95526.31;5091934;28;20276;-55
2023/07/12 10:43:07;;;;;;;1.92;1.83;;;;;;;37.93;36.19;95525.13;5091972;28;20603;-55
2023/07/12 10:45:39;;;;;;;0.47;0.40;;;;;;;38.27;36.26;95519.72;5092242;28;20231;-55
2023/07/12 10:48:09;;;;;;;0.30;0.30;;;;;;;38.83;34.66;95513.59;5091846;28;20205;-56
2023/07/12 10:50:45;;;;;;;6.45;0.70;;;;;;;38.68;36.16;95514.03;5092331;28;20193;-55
2023/07/12 10:53:20;;;;;;;0.93;0.70;;;;;;;37.89;38.16;95507.88;5088425;28;20197;-55
2023/07/12 10:56:17;;;;;;;2.15;1.15;;;;;;;38.28;37.05;95498.34;5085359;28;20251;-55
2023/07/12 10:58:51;;;;;;;1.05;0.75;;;;;;;38.12;36.95;95500.03;5069099;28;20671;-55
2023/07/12 11:01:50;;;;;;;0.50;0.45;;;;;;;38.45;37.17;95491.50;5091846;28;20277;-55
2023/07/12 11:04:26;;;;;;;0.50;0.50;;;;;;;38.67;36.02;95487.56;5092159;28;20236;-58
2023/07/12 11:06:57;;;;;;;0.60;0.52;;;;;;;38.88;34.30;95501.94;5091636;28;20699;-58
2023/07/12 11:09:27;;;;;;;1.58;1.48;;;;;;;38.75;35.45;95496.44;5091294;28;20284;-58
2023/07/12 11:12:06;;;;;;;1.83;0.77;;;;;;;37.60;36.79;95490.53;5091770;28;20194;-59
2023/07/12 11:14:51;;;;;;;0.65;0.65;;;;;;;38.35;37.62;95485.09;5090993;28;20242;-59
2023/07/12 11:17:24;;;;;;;0.93;0.80;;;;;;;38.66;38.05;95479.69;5091432;28;20262;-58
2023/07/12 11:20:08;;;;;;;1.10;0.60;;;;;;;39.12;34.81;95481.66;5091754;28;20735;-58
2023/07/12 11:22:52;;;;;;;0.80;0.80;;;;;;;39.92;35.41;95474.34;5090188;28;20221;-58
2023/07/12 11:25:26;;;;;;;1.30;0.60;;;;;;;40.15;35.06;95480.66;5091693;28;20216;-57
2023/07/12 11:27:58;;;;;;;0.57;0.57;;;;;;;39.47;36.32;95457.41;5091898;28;20280;-58
2023/07/12 11:30:39;;;;;;;0.68;0.60;;;;;;;40.05;34.50;95467.97;5090526;28;20186;-59
2023/07/12 11:33:24;;;;;;;0.43;0.43;;;;;;;40.01;36.09;95462.50;5091741;28;20670;-59
2023/07/12 11:35:57;;;;;;;0.65;0.65;;;;;;;40.10;33.98;95464.59;5091604;28;20201;-59
2023/07/12 11:38:29;;;;;;;0.43;0.40;;;;;;;40.79;34.69;95454.56;5091228;28;20246;-58
2023/07/12 11:40:59;;;;;;;1.05;0.95;;;;;;;38.80;33.50;95415.50;5091669;28;20299;-59
2023/07/12 11:43:34;;;;;;;2.92;2.22;;;;;;;38.44;33.82;95456.69;5091513;28;20270;-58
2023/07/12 11:46:10;;;;;;;0.80;0.80;;;;;;;39.59;33.76;95445.50;5091864;28;20343;-59
2023/07/12 11:48:44;;;;;;;1.45;1.05;;;;;;;40.08;36.04;95439.28;5091126;28;20277;-59